Terminal Aerodrome Forecast
Issued by NWS Blacksburg, VA

Current Version | Previous Version | Graphics & Text | Print | Product List | Glossary On
Versions: 1 2 3 4 5 6 7 8 9 10 11 12 13 14 15 16 17 18 19 20 21 22 23 24 25 26 27 28 29 30 31 32
000
FTUS41 KRNK 251723
TAFBLF
TAF
KBLF 251723Z 2518/2618 09007KT P6SM OVC009
      TEMPO 2518/2519 4SM -SHRA OVC003
     FM251900 03005KT P6SM VCSH OVC015
     FM260000 VRB03KT P6SM BKN040
     FM260400 VRB03KT P6SM SCT030
     FM260500 VRB03KT P6SM SCT025=

USA.gov is the U.S. government's official web portal to all federal, state and local government web resources and services.